Time;durP1;ratioP1;P1;durP2;ratioP2;P2;SDS_P1;SDS_P2;PMS_P1;PMS_P2;Temp;Humidity;BMP_temperature;BMP_pressure;BME280_temperature;BME280_humidity;BME280_pressure;Samples;Min_cycle;Max_cycle;Signal;HPM_P1;HPM_P2
2024/01/24 00:02:14;;;;;;;5.88;1.00;;;7.00;99.90;;;;;;5012217;28;20545;-82
2024/01/24 00:04:39;;;;;;;5.95;1.13;;;7.00;99.90;;;;;;5029669;28;20439;-82
2024/01/24 00:07:05;;;;;;;1.50;1.15;;;7.00;99.90;;;;;;5010856;28;20025;-82
2024/01/24 00:09:32;;;;;;;0.82;0.80;;;7.00;99.90;;;;;;5008505;28;20026;-82
2024/01/24 00:11:58;;;;;;;2.13;0.90;;;7.00;99.90;;;;;;5012203;28;20025;-82
2024/01/24 00:14:23;;;;;;;8.18;1.58;;;7.00;99.90;;;;;;5023133;28;20026;-82
2024/01/24 00:16:49;;;;;;;1.67;0.80;;;7.00;99.90;;;;;;5012060;28;20021;-81
2024/01/24 00:19:15;;;;;;;3.03;1.23;;;7.00;99.90;;;;;;5017404;28;20065;-82
2024/01/24 00:21:40;;;;;;;4.85;1.17;;;7.00;99.90;;;;;;5012052;28;20021;-82
2024/01/24 00:24:06;;;;;;;4.28;1.00;;;7.00;99.90;;;;;;5009179;28;20022;-82
2024/01/24 00:26:32;;;;;;;6.75;0.82;;;7.00;99.90;;;;;;5026442;28;20021;-82
2024/01/24 00:28:58;;;;;;;4.07;1.10;;;7.00;99.90;;;;;;5028686;28;20084;-82
2024/01/24 00:31:24;;;;;;;2.15;0.98;;;7.00;99.90;;;;;;5027771;28;20480;-81
2024/01/24 00:33:52;;;;;;;1.20;0.90;;;7.00;99.90;;;;;;5026986;28;20029;-81
2024/01/24 00:36:17;;;;;;;2.90;0.88;;;7.00;99.90;;;;;;5005546;28;20109;-81
2024/01/24 00:38:43;;;;;;;3.85;1.08;;;7.00;99.90;;;;;;5011717;28;20112;-82
2024/01/24 00:41:08;;;;;;;4.65;0.95;;;7.00;99.90;;;;;;5029501;28;20040;-82
2024/01/24 00:43:34;;;;;;;6.57;0.75;;;7.00;99.90;;;;;;5010496;28;20045;-82
2024/01/24 00:46:00;;;;;;;5.80;1.27;;;7.00;99.90;;;;;;5025686;28;20056;-81
2024/01/24 00:48:25;;;;;;;3.75;1.08;;;7.00;99.90;;;;;;5007457;28;20022;-81
2024/01/24 00:50:51;;;;;;;1.88;1.10;;;7.00;99.90;;;;;;5015573;28;20140;-81
2024/01/24 00:53:19;;;;;;;2.35;1.20;;;7.00;99.90;;;;;;5018478;28;20052;-81
2024/01/24 00:55:46;;;;;;;5.75;1.42;;;7.00;99.90;;;;;;5032316;28;20032;-81
2024/01/24 00:58:11;;;;;;;3.13;1.20;;;7.00;99.90;;;;;;5013782;28;20109;-81
2024/01/24 01:00:37;;;;;;;3.55;1.17;;;7.00;99.90;;;;;;5011433;28;20108;-82
2024/01/24 01:03:03;;;;;;;4.28;1.08;;;7.00;99.90;;;;;;5015377;28;20532;-81
2024/01/24 01:05:28;;;;;;;3.60;1.30;;;7.10;99.90;;;;;;5014865;28;20021;-81
2024/01/24 01:07:54;;;;;;;3.28;1.48;;;7.00;99.90;;;;;;5014993;28;20112;-81
2024/01/24 01:10:20;;;;;;;2.90;1.23;;;7.00;99.90;;;;;;5029872;28;20511;-81
2024/01/24 01:12:45;;;;;;;4.50;1.35;;;7.00;99.90;;;;;;5028928;28;20022;-82
2024/01/24 01:15:11;;;;;;;7.22;1.30;;;7.00;99.90;;;;;;5012323;28;20022;-81
2024/01/24 01:17:37;;;;;;;3.15;1.20;;;7.00;99.90;;;;;;5035957;28;20025;-81
2024/01/24 01:20:03;;;;;;;4.30;0.90;;;7.00;99.90;;;;;;5031063;28;20010;-81
2024/01/24 01:22:29;;;;;;;4.20;1.20;;;7.00;99.90;;;;;;5012626;28;20018;-81
2024/01/24 01:24:55;;;;;;;3.30;0.82;;;7.00;99.90;;;;;;5014260;28;20438;-82
2024/01/24 01:27:22;;;;;;;2.60;0.85;;;7.00;99.90;;;;;;5026048;28;20026;-81
2024/01/24 01:29:48;;;;;;;3.25;1.17;;;7.00;99.90;;;;;;5032513;28;20197;-81
2024/01/24 01:32:13;;;;;;;1.65;1.00;;;7.00;99.90;;;;;;5014648;28;20021;-82
2024/01/24 01:34:39;;;;;;;4.75;1.00;;;7.00;99.90;;;;;;5030471;28;20373;-81
2024/01/24 01:37:04;;;;;;;4.47;1.05;;;7.00;99.90;;;;;;5014292;28;20497;-82
2024/01/24 01:39:30;;;;;;;2.35;1.08;;;7.00;99.90;;;;;;5009125;28;20670;-82
2024/01/24 01:41:55;;;;;;;9.57;1.63;;;7.00;99.90;;;;;;5014069;28;20087;-81
2024/01/24 01:44:21;;;;;;;4.97;1.00;;;7.00;99.90;;;;;;5016031;28;20051;-81
2024/01/24 01:46:47;;;;;;;3.55;1.30;;;7.00;99.90;;;;;;5012922;28;20029;-82
2024/01/24 01:49:13;;;;;;;4.55;1.10;;;7.00;99.90;;;;;;5012507;28;20022;-81
2024/01/24 01:51:39;;;;;;;3.75;1.25;;;7.00;99.90;;;;;;5029713;28;20022;-80
2024/01/24 01:54:07;;;;;;;4.70;0.98;;;7.00;99.90;;;;;;5014114;28;20116;-81
2024/01/24 01:56:33;;;;;;;3.78;1.58;;;7.00;99.90;;;;;;5032826;28;20024;-81
2024/01/24 01:58:58;;;;;;;3.22;1.48;;;7.00;99.90;;;;;;5014170;28;20423;-81
2024/01/24 02:01:24;;;;;;;2.72;1.05;;;7.00;99.90;;;;;;5012410;28;20049;-82
2024/01/24 02:03:50;;;;;;;2.63;0.90;;;7.00;99.90;;;;;;5027735;28;20033;-81
2024/01/24 02:06:16;;;;;;;2.05;0.90;;;7.00;99.90;;;;;;5011703;28;20120;-82
2024/01/24 02:08:43;;;;;;;7.28;1.45;;;7.00;99.90;;;;;;5038167;28;20594;-82
2024/01/24 02:11:09;;;;;;;5.35;1.25;;;7.00;99.90;;;;;;5013317;28;20021;-82
2024/01/24 02:13:35;;;;;;;6.45;1.63;;;7.00;99.90;;;;;;5011577;28;20450;-82
2024/01/24 02:16:04;;;;;;;3.03;0.73;;;7.00;99.90;;;;;;5026275;28;20096;-81
2024/01/24 02:18:30;;;;;;;5.13;1.17;;;7.00;99.90;;;;;;5034461;28;20058;-82
2024/01/24 02:20:56;;;;;;;4.03;1.20;;;7.00;99.90;;;;;;5013871;28;20029;-82
2024/01/24 02:23:25;;;;;;;3.08;0.88;;;7.00;99.90;;;;;;5013087;28;20057;-82
2024/01/24 02:25:52;;;;;;;3.40;1.37;;;7.00;99.90;;;;;;5013626;28;20032;-81
2024/01/24 02:28:18;;;;;;;3.60;1.02;;;7.00;99.90;;;;;;5025754;28;20064;-82
2024/01/24 02:30:44;;;;;;;2.28;0.73;;;7.00;99.90;;;;;;5011023;28;20399;-82
2024/01/24 02:33:10;;;;;;;1.42;0.88;;;7.00;99.90;;;;;;5013000;28;20026;-81
2024/01/24 02:35:35;;;;;;;3.83;1.23;;;7.00;99.90;;;;;;5012970;28;20033;-83
2024/01/24 02:38:01;;;;;;;4.55;1.20;;;7.00;99.90;;;;;;5014552;28;20017;-81
2024/01/24 02:40:27;;;;;;;2.53;0.93;;;7.00;99.90;;;;;;5012608;28;20076;-82
2024/01/24 02:42:53;;;;;;;0.85;0.73;;;7.00;99.90;;;;;;5010058;28;20025;-81
2024/01/24 02:45:19;;;;;;;6.28;0.95;;;7.00;99.90;;;;;;5013288;28;20411;-82
2024/01/24 02:47:44;;;;;;;2.45;1.13;;;7.00;99.90;;;;;;5010865;28;20108;-83
2024/01/24 02:50:10;;;;;;;5.55;1.20;;;7.00;99.90;;;;;;5011895;28;20121;-80
2024/01/24 02:52:37;;;;;;;3.85;1.10;;;7.00;99.90;;;;;;5029628;28;20105;-81
2024/01/24 02:55:03;;;;;;;4.10;1.05;;;7.00;99.90;;;;;;5020354;28;20112;-81
2024/01/24 02:57:29;;;;;;;1.08;0.60;;;7.00;99.90;;;;;;5013648;28;20018;-81
2024/01/24 02:59:54;;;;;;;3.17;1.10;;;7.00;99.90;;;;;;5014835;28;20013;-81
2024/01/24 03:02:20;;;;;;;5.82;1.20;;;7.00;99.90;;;;;;5012058;28;20436;-82
2024/01/24 03:04:45;;;;;;;3.65;0.90;;;7.00;99.90;;;;;;5027626;28;20443;-81
2024/01/24 03:07:11;;;;;;;1.67;0.70;;;7.00;99.90;;;;;;5026427;28;20388;-80
2024/01/24 03:09:36;;;;;;;1.83;0.75;;;7.00;99.90;;;;;;5015178;28;20487;-81
2024/01/24 03:12:02;;;;;;;2.38;0.90;;;7.00;99.90;;;;;;5028644;28;20120;-81
2024/01/24 03:14:28;;;;;;;3.08;1.08;;;7.00;99.90;;;;;;5011809;28;20121;-81
2024/01/24 03:16:53;;;;;;;3.38;1.27;;;7.00;99.90;;;;;;5013577;28;20541;-81
2024/01/24 03:19:19;;;;;;;4.45;0.90;;;7.00;99.90;;;;;;5026208;28;20028;-82
2024/01/24 03:21:45;;;;;;;3.78;1.00;;;7.00;99.90;;;;;;5033206;28;20033;-82
2024/01/24 03:24:11;;;;;;;4.10;2.03;;;7.00;99.90;;;;;;5009151;28;20498;-82
2024/01/24 03:26:37;;;;;;;7.53;1.02;;;7.00;99.90;;;;;;5010872;28;20021;-81
2024/01/24 03:29:02;;;;;;;3.95;1.08;;;7.00;99.90;;;;;;5012688;28;20020;-83
2024/01/24 03:31:28;;;;;;;1.23;0.93;;;7.00;99.90;;;;;;5012526;28;20071;-82
2024/01/24 03:33:54;;;;;;;1.15;0.90;;;7.00;99.90;;;;;;5033548;28;20017;-82
2024/01/24 03:36:19;;;;;;;2.10;0.75;;;7.00;99.90;;;;;;5012198;28;20053;-81
2024/01/24 03:38:45;;;;;;;3.20;0.98;;;7.00;99.90;;;;;;5015891;28;20026;-82
2024/01/24 03:41:10;;;;;;;6.20;0.93;;;7.00;99.90;;;;;;5010888;28;20033;-82
2024/01/24 03:43:39;;;;;;;4.30;0.90;;;7.00;99.90;;;;;;5027739;28;20064;-81
2024/01/24 03:46:06;;;;;;;4.25;1.00;;;7.10;99.90;;;;;;5012304;28;20025;-81
2024/01/24 03:48:31;;;;;;;1.90;0.88;;;7.10;99.90;;;;;;5012132;28;20028;-81
2024/01/24 03:50:57;;;;;;;1.10;0.70;;;7.10;99.90;;;;;;5011972;28;20021;-80
2024/01/24 03:53:23;;;;;;;2.40;0.70;;;7.10;99.90;;;;;;5011020;28;20100;-82
2024/01/24 03:55:48;;;;;;;0.70;0.70;;;7.10;99.90;;;;;;5009862;28;20120;-81
2024/01/24 03:58:14;;;;;;;2.67;0.93;;;7.10;99.90;;;;;;5036278;28;20056;-81
2024/01/24 04:00:39;;;;;;;3.30;0.88;;;7.10;99.90;;;;;;5012227;28;20025;-81
2024/01/24 04:03:05;;;;;;;2.05;0.88;;;7.10;99.90;;;;;;5007785;28;20022;-81
2024/01/24 04:05:31;;;;;;;2.88;0.93;;;7.10;99.90;;;;;;5010998;28;20025;-81
2024/01/24 04:07:56;;;;;;;1.90;0.95;;;7.10;99.90;;;;;;5015759;28;20021;-81
2024/01/24 04:10:22;;;;;;;1.20;0.80;;;7.20;99.90;;;;;;5029838;28;20116;-81
2024/01/24 04:12:47;;;;;;;4.03;0.90;;;7.20;99.90;;;;;;5011966;28;20491;-82
2024/01/24 04:15:13;;;;;;;0.80;0.80;;;7.20;99.90;;;;;;5011558;28;20091;-82
2024/01/24 04:17:39;;;;;;;2.33;0.80;;;7.20;99.90;;;;;;5008015;28;20018;-82
2024/01/24 04:20:05;;;;;;;1.80;0.80;;;7.20;99.90;;;;;;5030308;28;20017;-83
2024/01/24 04:22:31;;;;;;;0.68;0.68;;;7.20;99.90;;;;;;5033077;28;20107;-82
2024/01/24 04:24:57;;;;;;;1.63;0.93;;;7.20;99.90;;;;;;5031426;28;20064;-81
2024/01/24 04:27:23;;;;;;;1.10;0.88;;;7.20;99.90;;;;;;5015692;28;20034;-81
2024/01/24 04:29:48;;;;;;;1.25;0.75;;;7.20;99.90;;;;;;5033118;28;20025;-82
2024/01/24 04:32:14;;;;;;;1.85;0.88;;;7.20;99.90;;;;;;5029462;28;20029;-82
2024/01/24 04:34:40;;;;;;;1.65;0.85;;;7.30;99.90;;;;;;5033170;28;20013;-83
2024/01/24 04:37:05;;;;;;;11.48;1.30;;;7.20;99.90;;;;;;5036239;28;20403;-82
2024/01/24 04:39:31;;;;;;;4.70;1.10;;;7.30;99.90;;;;;;5034794;28;20488;-82
2024/01/24 04:41:58;;;;;;;9.07;0.90;;;7.30;99.90;;;;;;5016393;28;20394;-81
2024/01/24 04:44:23;;;;;;;5.03;0.82;;;7.20;99.90;;;;;;5013948;28;20025;-82
2024/01/24 04:46:49;;;;;;;1.20;0.80;;;7.30;99.90;;;;;;5019131;28;20430;-81
2024/01/24 04:49:14;;;;;;;3.60;0.75;;;7.30;99.90;;;;;;5015683;28;20045;-82
2024/01/24 04:51:40;;;;;;;3.45;0.80;;;7.30;99.90;;;;;;5013277;28;20025;-81
2024/01/24 04:54:06;;;;;;;0.65;0.65;;;7.30;99.90;;;;;;5032433;28;20024;-82
2024/01/24 04:56:33;;;;;;;3.92;0.93;;;7.30;99.90;;;;;;5014143;28;20033;-81
2024/01/24 04:58:59;;;;;;;2.10;1.00;;;7.30;99.90;;;;;;5032930;28;20038;-83
2024/01/24 05:01:24;;;;;;;3.50;0.88;;;7.30;99.90;;;;;;5018071;28;20056;-82
2024/01/24 05:03:50;;;;;;;1.65;0.60;;;7.30;99.90;;;;;;5033281;28;20021;-82
2024/01/24 05:06:16;;;;;;;0.50;0.50;;;7.30;99.90;;;;;;5014705;28;20734;-82
2024/01/24 05:08:41;;;;;;;0.90;0.80;;;7.30;99.90;;;;;;5027680;28;20072;-82
2024/01/24 05:11:07;;;;;;;2.40;0.80;;;7.30;99.90;;;;;;5038647;28;20025;-82
2024/01/24 05:13:33;;;;;;;4.43;0.68;;;7.30;99.90;;;;;;5015160;28;20022;-83
2024/01/24 05:15:59;;;;;;;1.55;0.88;;;7.30;99.90;;;;;;5030555;28;20036;-82
2024/01/24 05:18:25;;;;;;;0.93;0.90;;;7.30;99.90;;;;;;5014621;28;20017;-82
2024/01/24 05:20:50;;;;;;;2.15;0.88;;;7.30;99.90;;;;;;5013179;28;20017;-82
2024/01/24 05:23:16;;;;;;;0.47;0.47;;;7.30;99.90;;;;;;5014891;28;20101;-82
2024/01/24 05:25:42;;;;;;;0.68;0.60;;;7.30;99.90;;;;;;5030141;28;20025;-82
2024/01/24 05:28:10;;;;;;;0.80;0.80;;;7.30;99.90;;;;;;5014836;28;20025;-81
2024/01/24 05:30:35;;;;;;;1.88;0.85;;;7.30;99.90;;;;;;5032084;28;20038;-83
2024/01/24 05:33:01;;;;;;;1.25;1.02;;;7.30;99.90;;;;;;5030927;28;20084;-82
2024/01/24 05:35:26;;;;;;;4.85;0.80;;;7.30;99.90;;;;;;5012975;28;20025;-81
2024/01/24 05:37:52;;;;;;;3.20;0.85;;;7.30;99.90;;;;;;5014333;28;20629;-82
2024/01/24 05:40:18;;;;;;;0.88;0.82;;;7.30;99.90;;;;;;5011503;28;20025;-81
2024/01/24 05:42:44;;;;;;;1.50;0.93;;;7.30;99.90;;;;;;5032084;28;20021;-81
2024/01/24 05:45:11;;;;;;;5.85;0.80;;;7.30;99.90;;;;;;5014992;28;20512;-81
2024/01/24 05:47:37;;;;;;;0.70;0.70;;;7.30;99.90;;;;;;5014532;28;20029;-82
2024/01/24 05:50:03;;;;;;;0.80;0.70;;;7.30;99.90;;;;;;5034991;28;20561;-82
2024/01/24 05:52:28;;;;;;;4.10;1.15;;;7.30;99.90;;;;;;5018468;28;20037;-82
2024/01/24 05:54:54;;;;;;;1.63;0.70;;;7.30;99.90;;;;;;5013996;28;20024;-82
2024/01/24 05:57:21;;;;;;;1.85;0.70;;;7.30;99.90;;;;;;5013770;28;20026;-81
2024/01/24 05:59:47;;;;;;;1.40;1.30;;;7.30;99.90;;;;;;5031556;28;20049;-82
2024/01/24 06:02:13;;;;;;;1.75;0.88;;;7.30;99.90;;;;;;5034294;28;20037;-81
2024/01/24 06:04:39;;;;;;;1.35;0.82;;;7.30;99.90;;;;;;5014152;28;20030;-81
2024/01/24 06:07:06;;;;;;;3.60;1.00;;;7.30;99.90;;;;;;5016240;28;20514;-82
2024/01/24 06:09:31;;;;;;;6.55;0.82;;;7.30;99.90;;;;;;5013259;28;20068;-81
2024/01/24 06:11:58;;;;;;;2.92;0.80;;;7.30;99.90;;;;;;5018924;28;20666;-82
2024/01/24 06:14:24;;;;;;;3.20;0.90;;;7.30;99.90;;;;;;5031267;28;20487;-83
2024/01/24 06:16:49;;;;;;;1.48;0.90;;;7.30;99.90;;;;;;5031443;28;20021;-81
2024/01/24 06:19:15;;;;;;;2.35;0.90;;;7.40;99.90;;;;;;5010603;28;20566;-83
2024/01/24 06:21:40;;;;;;;0.80;0.80;;;7.30;99.90;;;;;;5030976;28;20032;-81
2024/01/24 06:24:06;;;;;;;1.98;0.80;;;7.40;99.90;;;;;;5030393;28;20017;-82
2024/01/24 06:26:32;;;;;;;1.95;0.75;;;7.40;99.90;;;;;;5016290;28;20029;-81
2024/01/24 06:28:58;;;;;;;2.78;0.90;;;7.40;99.90;;;;;;5015058;28;20032;-81
2024/01/24 06:31:23;;;;;;;2.63;1.08;;;7.40;99.90;;;;;;5013825;28;20499;-81
2024/01/24 06:33:49;;;;;;;0.63;0.63;;;7.30;99.90;;;;;;5013239;28;20464;-81
2024/01/24 06:36:14;;;;;;;0.85;0.70;;;7.40;99.90;;;;;;5034181;28;20030;-82
2024/01/24 06:38:40;;;;;;;1.73;0.95;;;7.40;99.90;;;;;;5013557;28;20026;-82
2024/01/24 06:41:05;;;;;;;0.90;0.85;;;7.40;99.90;;;;;;5013319;28;20030;-82
2024/01/24 06:43:31;;;;;;;1.27;0.98;;;7.40;99.90;;;;;;5034314;28;20443;-82
2024/01/24 06:45:57;;;;;;;4.63;0.77;;;7.40;99.90;;;;;;5031029;28;20479;-81
2024/01/24 06:48:22;;;;;;;1.27;0.73;;;7.40;99.90;;;;;;5029391;28;20439;-82
2024/01/24 06:50:48;;;;;;;7.07;1.15;;;7.40;99.90;;;;;;5030951;28;20025;-81
2024/01/24 06:53:14;;;;;;;2.35;0.90;;;7.40;99.90;;;;;;5013332;28;20056;-81
2024/01/24 06:55:41;;;;;;;0.93;0.90;;;7.40;99.90;;;;;;5030702;28;20022;-83
2024/01/24 06:58:07;;;;;;;2.92;0.68;;;7.40;99.90;;;;;;5030669;28;20117;-82
2024/01/24 07:00:33;;;;;;;2.00;0.88;;;7.40;99.90;;;;;;5030669;28;20029;-82
2024/01/24 07:03:00;;;;;;;2.17;0.65;;;7.40;99.90;;;;;;5031094;28;20048;-81
2024/01/24 07:05:25;;;;;;;2.75;0.70;;;7.40;99.90;;;;;;5030114;28;20033;-82
2024/01/24 07:07:51;;;;;;;5.55;1.05;;;7.50;99.90;;;;;;5032215;28;20441;-81
2024/01/24 07:10:16;;;;;;;5.97;1.10;;;7.50;99.90;;;;;;5013724;28;20025;-82
2024/01/24 07:12:45;;;;;;;0.82;0.73;;;7.50;99.90;;;;;;5013113;28;20026;-81
2024/01/24 07:15:11;;;;;;;1.15;0.80;;;7.50;99.90;;;;;;5028831;28;20028;-82
2024/01/24 07:17:37;;;;;;;1.83;0.95;;;7.60;99.90;;;;;;5030378;28;20079;-82
2024/01/24 07:20:03;;;;;;;2.15;0.90;;;7.60;99.90;;;;;;5015471;28;20108;-82
2024/01/24 07:22:29;;;;;;;0.77;0.77;;;7.60;99.90;;;;;;5011888;28;20107;-83
2024/01/24 07:24:54;;;;;;;0.70;0.70;;;7.60;99.90;;;;;;5011689;28;20175;-82
2024/01/24 07:27:20;;;;;;;1.33;0.88;;;7.60;99.90;;;;;;5016107;28;20029;-82
2024/01/24 07:29:45;;;;;;;1.02;0.95;;;7.70;99.90;;;;;;5032450;28;20033;-82
2024/01/24 07:32:11;;;;;;;1.83;0.60;;;7.70;99.90;;;;;;5012446;28;20446;-82
2024/01/24 07:34:38;;;;;;;1.35;0.60;;;7.60;99.90;;;;;;5012360;28;20022;-83
2024/01/24 07:37:05;;;;;;;1.65;0.82;;;7.60;99.90;;;;;;5031157;28;20021;-82
2024/01/24 07:39:30;;;;;;;5.88;0.85;;;7.70;99.90;;;;;;5010951;28;20400;-81
2024/01/24 07:41:56;;;;;;;4.55;0.90;;;7.60;99.90;;;;;;5013663;28;20098;-81
2024/01/24 07:44:22;;;;;;;0.70;0.70;;;7.70;99.90;;;;;;5030175;28;20029;-82
2024/01/24 07:46:49;;;;;;;4.70;1.23;;;7.70;99.90;;;;;;5009028;28;20128;-82
2024/01/24 07:49:14;;;;;;;5.72;1.27;;;7.70;99.90;;;;;;5033200;28;20447;-82
2024/01/24 07:51:46;;;;;;;4.72;1.25;;;7.70;99.90;;;;;;5037406;28;20024;-82
2024/01/24 07:54:12;;;;;;;1.48;0.98;;;7.70;99.90;;;;;;5013318;28;20085;-81
2024/01/24 07:56:38;;;;;;;2.05;0.80;;;7.70;99.90;;;;;;5010101;28;20029;-82
2024/01/24 07:59:05;;;;;;;1.58;0.80;;;7.70;99.90;;;;;;5012635;28;20014;-83
2024/01/24 08:01:31;;;;;;;2.97;1.15;;;7.70;99.90;;;;;;5029733;28;20028;-82
2024/01/24 08:03:56;;;;;;;0.80;0.80;;;7.70;99.90;;;;;;5032685;28;20097;-81
2024/01/24 08:06:22;;;;;;;3.85;1.05;;;7.80;99.90;;;;;;5029946;28;20068;-83
2024/01/24 08:08:48;;;;;;;3.33;0.98;;;7.80;99.90;;;;;;5029951;28;20555;-82
2024/01/24 08:11:14;;;;;;;0.80;0.80;;;7.80;99.90;;;;;;5012843;28;20028;-81
2024/01/24 08:13:39;;;;;;;2.42;0.95;;;7.80;99.90;;;;;;5011688;28;20026;-82
2024/01/24 08:16:07;;;;;;;2.60;0.80;;;7.80;99.90;;;;;;5011746;28;20124;-81
2024/01/24 08:18:33;;;;;;;3.53;0.70;;;7.80;99.90;;;;;;5013292;28;20026;-82
2024/01/24 08:20:59;;;;;;;3.55;0.85;;;7.80;99.90;;;;;;5016846;28;20018;-83
2024/01/24 08:23:25;;;;;;;0.80;0.80;;;7.90;99.90;;;;;;5029284;28;20024;-82
2024/01/24 08:25:50;;;;;;;0.98;0.80;;;7.90;99.90;;;;;;5008510;28;20036;-81
2024/01/24 08:28:16;;;;;;;4.70;1.23;;;7.90;99.90;;;;;;5029202;28;20068;-81
2024/01/24 08:30:42;;;;;;;3.40;1.00;;;7.90;99.90;;;;;;5029684;28;20029;-82
2024/01/24 08:33:07;;;;;;;0.85;0.68;;;7.90;99.90;;;;;;5011804;28;20032;-82
2024/01/24 08:35:35;;;;;;;0.90;0.90;;;7.90;99.90;;;;;;5013654;28;20376;-81
2024/01/24 08:38:01;;;;;;;1.38;0.80;;;7.90;99.90;;;;;;5011639;28;20018;-81
2024/01/24 08:40:27;;;;;;;2.53;0.80;;;8.00;99.90;;;;;;5011979;28;20022;-82
2024/01/24 08:42:52;;;;;;;1.25;0.80;;;8.00;99.90;;;;;;5029706;28;20029;-82
2024/01/24 08:45:18;;;;;;;5.78;1.00;;;8.00;99.90;;;;;;5013101;28;20029;-82
2024/01/24 08:47:44;;;;;;;2.85;1.20;;;7.90;99.90;;;;;;5032010;28;20030;-81
2024/01/24 08:50:10;;;;;;;0.70;0.70;;;8.00;99.90;;;;;;5011535;28;20033;-81
2024/01/24 08:52:35;;;;;;;5.03;0.85;;;8.00;99.90;;;;;;5033117;28;20398;-82
2024/01/24 08:55:01;;;;;;;1.98;0.93;;;8.00;99.90;;;;;;5031151;28;20021;-82
2024/01/24 08:57:27;;;;;;;3.88;0.82;;;8.00;99.90;;;;;;5031293;28;20063;-82
2024/01/24 08:59:53;;;;;;;4.47;1.20;;;8.00;99.90;;;;;;5026473;28;20052;-81
2024/01/24 09:02:19;;;;;;;0.60;0.60;;;8.10;99.90;;;;;;5011620;28;20055;-82
2024/01/24 09:04:46;;;;;;;1.45;0.70;;;8.10;99.90;;;;;;5014900;28;20746;-82
2024/01/24 09:07:14;;;;;;;2.42;0.60;;;8.10;99.90;;;;;;5010242;28;20539;-81
2024/01/24 09:09:40;;;;;;;3.25;0.70;;;8.10;99.90;;;;;;5012455;28;20033;-83
2024/01/24 09:12:06;;;;;;;0.60;0.50;;;8.10;99.90;;;;;;5015084;28;20407;-81
2024/01/24 09:14:31;;;;;;;1.08;0.73;;;8.10;99.90;;;;;;5014638;28;20060;-81
2024/01/24 09:16:57;;;;;;;1.15;0.70;;;8.10;99.90;;;;;;5015251;28;20403;-82
2024/01/24 09:19:23;;;;;;;1.58;0.70;;;8.10;99.90;;;;;;5032637;28;20060;-82
2024/01/24 09:21:49;;;;;;;1.42;0.80;;;8.20;99.90;;;;;;5030361;28;20101;-81
2024/01/24 09:24:14;;;;;;;1.15;0.73;;;8.20;99.90;;;;;;5014836;28;20021;-82
2024/01/24 09:26:40;;;;;;;2.70;0.60;;;8.20;99.90;;;;;;5032353;28;20144;-82
2024/01/24 09:29:06;;;;;;;4.88;0.70;;;8.20;99.90;;;;;;5019243;28;20026;-81
2024/01/24 09:31:31;;;;;;;0.85;0.60;;;8.20;99.90;;;;;;5033987;28;20120;-82
2024/01/24 09:33:57;;;;;;;1.35;0.60;;;8.30;99.90;;;;;;5032473;28;20405;-82
2024/01/24 09:36:27;;;;;;;0.50;0.50;;;8.40;99.90;;;;;;5033385;28;20118;-82
2024/01/24 09:38:52;;;;;;;;;;;8.50;99.90;;;;;;5015802;28;20025;-82
2024/01/24 09:41:19;;;;;;;0.80;0.52;;;8.50;99.90;;;;;;5014506;28;19917;-82
2024/01/24 09:43:46;;;;;;;1.30;0.50;;;8.60;99.90;;;;;;5014558;28;20017;-81
2024/01/24 09:46:18;;;;;;;2.78;0.60;;;8.60;99.90;;;;;;5012332;28;20609;-81
2024/01/24 09:48:45;;;;;;;0.60;0.60;;;8.50;99.90;;;;;;5013180;28;20068;-82
2024/01/24 09:51:11;;;;;;;2.53;0.70;;;8.50;99.90;;;;;;5014711;28;20091;-81
2024/01/24 09:53:38;;;;;;;3.50;0.77;;;8.60;99.90;;;;;;5014439;28;20049;-81
2024/01/24 09:56:05;;;;;;;0.55;0.55;;;8.60;99.90;;;;;;5013885;28;20033;-81
2024/01/24 09:58:30;;;;;;;1.52;0.90;;;8.60;99.90;;;;;;5031997;28;20028;-82
2024/01/24 10:00:57;;;;;;;1.20;1.00;;;8.60;99.90;;;;;;5014291;28;20026;-81
2024/01/24 10:03:24;;;;;;;0.68;0.68;;;8.70;99.90;;;;;;5014238;28;20071;-81
2024/01/24 10:05:50;;;;;;;1.38;0.60;;;8.80;99.90;;;;;;5032006;28;20479;-82
2024/01/24 10:08:18;;;;;;;1.73;0.80;;;8.90;99.90;;;;;;5015573;28;20194;-83
2024/01/24 10:10:45;;;;;;;0.50;0.50;;;8.90;99.90;;;;;;5034607;28;20383;-81
2024/01/24 10:13:11;;;;;;;0.88;0.50;;;8.80;99.90;;;;;;5011621;28;20403;-82
2024/01/24 10:15:37;;;;;;;0.60;0.52;;;8.80;99.90;;;;;;5032407;28;20029;-82
2024/01/24 10:18:04;;;;;;;0.63;0.60;;;8.70;99.90;;;;;;5034595;28;20029;-81
2024/01/24 10:20:29;;;;;;;0.47;0.47;;;8.70;99.90;;;;;;5019883;28;20026;-81
2024/01/24 10:22:55;;;;;;;1.10;0.57;;;8.70;99.90;;;;;;5015185;28;20017;-81
2024/01/24 10:25:21;;;;;;;1.98;0.52;;;8.70;99.90;;;;;;5015106;28;20076;-82
2024/01/24 10:27:47;;;;;;;0.50;0.50;;;8.70;99.90;;;;;;5013989;28;20034;-82
2024/01/24 10:30:15;;;;;;;0.45;0.40;;;8.60;99.90;;;;;;5013023;28;20021;-81
2024/01/24 10:32:46;;;;;;;1.50;0.70;;;8.60;99.90;;;;;;5013865;28;20036;-82
2024/01/24 10:35:12;;;;;;;2.28;0.70;;;8.60;99.90;;;;;;5032570;28;20018;-80
2024/01/24 10:37:41;;;;;;;1.13;0.60;;;8.60;99.90;;;;;;5032098;28;20024;-81
2024/01/24 10:40:11;;;;;;;1.88;0.70;;;8.60;99.90;;;;;;5031204;28;20018;-81
2024/01/24 10:42:42;;;;;;;2.65;0.70;;;8.60;99.90;;;;;;5012853;28;20112;-81
2024/01/24 10:45:08;;;;;;;0.93;0.60;;;8.60;99.90;;;;;;5030113;28;20013;-82
2024/01/24 10:47:34;;;;;;;0.95;0.60;;;8.60;99.90;;;;;;5013362;28;20029;-81
2024/01/24 10:50:06;;;;;;;1.33;0.65;;;8.60;99.90;;;;;;5014703;28;20091;-81
2024/01/24 10:52:32;;;;;;;0.40;0.40;;;8.60;99.90;;;;;;5014244;28;20033;-81
2024/01/24 10:55:06;;;;;;;0.63;0.60;;;8.60;99.90;;;;;;5012298;28;20080;-83
2024/01/24 10:57:35;;;;;;;1.17;0.50;;;8.60;99.90;;;;;;5012911;28;20021;-83
2024/01/24 11:00:05;;;;;;;0.85;0.65;;;8.60;99.90;;;;;;5010255;28;20110;-83
2024/01/24 11:02:31;;;;;;;0.73;0.52;;;8.70;99.90;;;;;;5030744;28;20022;-83
2024/01/24 11:04:59;;;;;;;1.75;0.57;;;8.80;99.90;;;;;;5030552;28;20021;-82
2024/01/24 11:07:34;;;;;;;0.50;0.50;;;8.80;99.90;;;;;;5014778;28;20095;-82
2024/01/24 11:10:23;;;;;;;2.50;0.70;;;8.70;99.90;;;;;;5013832;28;20056;-82
2024/01/24 11:12:49;;;;;;;0.77;0.77;;;8.70;99.90;;;;;;5032784;28;20032;-83
2024/01/24 11:15:14;;;;;;;0.50;0.50;;;8.70;99.90;;;;;;5010892;28;20076;-83
2024/01/24 11:17:42;;;;;;;0.55;0.40;;;8.70;99.90;;;;;;5010712;28;20476;-83
2024/01/24 11:20:11;;;;;;;2.03;0.43;;;8.60;99.90;;;;;;5011983;28;20108;-82
2024/01/24 11:22:37;;;;;;;1.35;0.57;;;8.70;99.90;;;;;;5026427;28;20014;-83
2024/01/24 11:25:04;;;;;;;0.40;0.40;;;8.60;99.90;;;;;;5012669;28;20020;-83
2024/01/24 11:27:36;;;;;;;0.50;0.50;;;8.70;99.90;;;;;;5012777;28;20032;-83
2024/01/24 11:30:17;;;;;;;0.70;0.70;;;8.70;99.90;;;;;;5029485;28;20028;-82
2024/01/24 11:32:54;;;;;;;;;;;8.70;99.90;;;;;;5005879;28;20029;-83
2024/01/24 11:35:36;;;;;;;0.60;0.57;;;8.70;99.90;;;;;;5028726;28;20005;-82
2024/01/24 11:38:06;;;;;;;2.08;0.70;;;8.70;99.90;;;;;;5030870;28;20021;-82
2024/01/24 11:40:37;;;;;;;0.80;0.55;;;8.70;99.90;;;;;;5012265;28;20116;-82
2024/01/24 11:43:03;;;;;;;0.70;0.60;;;8.70;99.90;;;;;;5027976;28;20014;-81
2024/01/24 11:45:30;;;;;;;0.40;0.40;;;8.70;99.90;;;;;;5011261;28;20026;-82
2024/01/24 11:47:57;;;;;;;0.50;0.50;;;8.70;99.90;;;;;;5012316;28;20120;-82
2024/01/24 11:50:22;;;;;;;0.60;0.60;;;8.70;99.90;;;;;;5011398;28;20507;-83
2024/01/24 11:52:48;;;;;;;1.25;0.50;;;8.70;99.90;;;;;;5028794;28;20025;-81
2024/01/24 11:55:14;;;;;;;0.50;0.50;;;8.60;99.90;;;;;;5011904;28;20442;-82
2024/01/24 11:57:40;;;;;;;0.40;0.40;;;8.60;99.90;;;;;;5031079;28;20025;-82
2024/01/24 12:00:07;;;;;;;0.47;0.47;;;8.60;99.90;;;;;;5010942;28;20021;-81
2024/01/24 12:02:34;;;;;;;0.60;0.50;;;8.60;99.90;;;;;;5012038;28;20460;-82
2024/01/24 12:05:00;;;;;;;0.47;0.47;;;8.60;99.90;;;;;;5009667;28;20025;-82
2024/01/24 12:07:26;;;;;;;0.40;0.40;;;8.70;99.90;;;;;;5029787;28;20511;-81
2024/01/24 12:09:53;;;;;;;0.50;0.50;;;8.70;99.90;;;;;;5028937;28;20067;-81
2024/01/24 12:12:19;;;;;;;0.40;0.40;;;8.70;99.90;;;;;;5012097;28;20042;-82
2024/01/24 12:14:44;;;;;;;0.30;0.30;;;8.70;99.90;;;;;;5029819;28;20029;-82
2024/01/24 12:17:10;;;;;;;0.50;0.50;;;8.60;99.90;;;;;;5028677;28;20013;-82
2024/01/24 12:19:36;;;;;;;0.50;0.50;;;8.50;99.90;;;;;;5014179;28;20040;-83
2024/01/24 12:22:06;;;;;;;0.40;0.40;;;8.50;99.90;;;;;;5027202;28;20022;-81
2024/01/24 12:24:32;;;;;;;1.48;0.60;;;8.50;99.90;;;;;;5012311;28;20025;-82
2024/01/24 12:26:59;;;;;;;0.85;0.50;;;8.50;99.90;;;;;;5029678;28;20036;-82
2024/01/24 12:29:25;;;;;;;0.68;0.63;;;8.60;99.90;;;;;;5010982;28;20072;-82
2024/01/24 12:31:51;;;;;;;0.50;0.50;;;8.60;99.90;;;;;;5012029;28;20017;-81
2024/01/24 12:34:23;;;;;;;0.43;0.43;;;8.60;99.90;;;;;;5033363;28;20033;-82
2024/01/24 12:36:48;;;;;;;0.40;0.40;;;8.50;99.90;;;;;;5007245;28;20079;-82
2024/01/24 12:39:15;;;;;;;0.50;0.50;;;8.60;99.90;;;;;;5028287;28;20017;-81
2024/01/24 12:41:40;;;;;;;0.57;0.45;;;8.60;99.90;;;;;;5030097;28;20032;-81
2024/01/24 12:44:09;;;;;;;0.70;0.47;;;8.60;99.90;;;;;;5029910;28;20025;-82
2024/01/24 12:46:35;;;;;;;0.40;0.40;;;8.60;99.90;;;;;;5019427;28;20033;-82
2024/01/24 12:49:01;;;;;;;0.52;0.52;;;8.60;99.90;;;;;;5026994;28;20416;-82
2024/01/24 12:51:26;;;;;;;0.73;0.40;;;8.50;99.90;;;;;;5035335;28;20111;-82
2024/01/24 12:53:53;;;;;;;0.47;0.47;;;8.50;99.90;;;;;;5016452;28;20163;-82